createdAt,value
2022-11-29T00:01:09.094Z,101544.73
2022-11-29T00:03:41.470Z,101534.02
2022-11-29T00:06:16.447Z,101537.90
2022-11-29T00:08:49.826Z,101540.23
2022-11-29T00:11:37.990Z,101537.96
2022-11-29T00:14:12.094Z,101541.35
2022-11-29T00:16:44.546Z,101542.20
2022-11-29T00:19:18.003Z,101545.93
2022-11-29T00:21:50.643Z,101545.98
2022-11-29T00:24:23.334Z,101546.86
2022-11-29T00:26:55.968Z,101542.85
2022-11-29T00:29:28.433Z,101540.61
2022-11-29T00:32:00.743Z,101535.64
2022-11-29T00:34:33.103Z,101530.64
2022-11-29T00:37:05.818Z,101525.68
2022-11-29T00:39:38.105Z,101522.33
2022-11-29T00:42:10.432Z,101518.20
2022-11-29T00:44:43.072Z,101510.53
2022-11-29T00:47:15.543Z,101511.63
2022-11-29T00:49:47.832Z,101504.77
2022-11-29T00:52:20.074Z,101511.55
2022-11-29T00:54:52.327Z,101511.79
2022-11-29T00:57:24.672Z,101515.45
2022-11-29T00:59:56.929Z,101516.70
2022-11-29T01:02:29.768Z,101517.65
2022-11-29T01:05:02.496Z,101515.52
2022-11-29T01:07:34.817Z,101518.04
2022-11-29T01:10:11.326Z,101519.40
2022-11-29T01:12:43.579Z,101523.63
2022-11-29T01:15:16.201Z,101520.83
2022-11-29T01:17:49.299Z,101513.23
2022-11-29T01:20:21.711Z,101502.58
2022-11-29T01:22:54.361Z,101502.33
2022-11-29T01:25:26.707Z,101504.97
2022-11-29T01:27:59.153Z,101504.70
2022-11-29T01:30:31.614Z,101499.98
2022-11-29T01:33:04.343Z,101498.91
2022-11-29T01:35:36.683Z,101494.00
2022-11-29T01:38:09.069Z,101502.49
2022-11-29T01:40:41.346Z,101498.10
2022-11-29T01:43:18.626Z,101501.39
2022-11-29T01:45:52.650Z,101504.38
2022-11-29T01:48:28.797Z,101510.38
2022-11-29T01:51:02.961Z,101508.55
2022-11-29T01:53:35.976Z,101504.13
2022-11-29T01:56:09.959Z,101504.08
2022-11-29T01:58:43.104Z,101499.19
2022-11-29T02:01:15.798Z,101498.59
2022-11-29T02:03:48.208Z,101501.05
2022-11-29T02:06:21.574Z,101504.63
2022-11-29T02:08:53.910Z,101504.99
2022-11-29T02:12:00.472Z,101503.69
2022-11-29T02:14:51.027Z,101502.73
2022-11-29T02:17:34.523Z,101498.16
2022-11-29T02:20:44.066Z,101500.70
2022-11-29T02:23:42.045Z,101501.30
2022-11-29T02:26:30.325Z,101502.27
2022-11-29T02:29:24.270Z,101500.71
2022-11-29T02:32:52.033Z,101502.29
2022-11-29T02:35:40.640Z,101508.68
2022-11-29T02:38:31.281Z,101512.24
2022-11-29T02:41:29.163Z,101512.49
2022-11-29T02:44:33.799Z,101511.17
2022-11-29T02:47:16.937Z,101514.23
2022-11-29T02:50:14.174Z,101519.23
2022-11-29T02:52:54.447Z,101525.81
2022-11-29T02:55:34.890Z,101526.13
2022-11-29T02:58:18.134Z,101521.48
2022-11-29T03:00:58.451Z,101520.58
2022-11-29T03:03:39.544Z,101516.89
2022-11-29T03:06:22.417Z,101517.10
2022-11-29T03:09:02.101Z,101519.58
2022-11-29T03:11:42.531Z,101518.37
2022-11-29T03:14:25.734Z,101519.16
2022-11-29T03:17:09.660Z,101518.86
2022-11-29T03:20:08.331Z,101518.29
2022-11-29T03:22:49.234Z,101519.88
2022-11-29T03:25:30.618Z,101519.78
2022-11-29T03:28:12.998Z,101517.63
2022-11-29T03:30:51.465Z,101514.66
2022-11-29T03:33:34.367Z,101514.13
2022-11-29T03:36:14.238Z,101511.53
2022-11-29T03:38:48.429Z,101513.14
2022-11-29T03:41:26.302Z,101514.38
2022-11-29T03:44:03.826Z,101513.02
2022-11-29T03:46:44.127Z,101514.73
2022-11-29T03:49:24.201Z,101515.77
2022-11-29T03:52:05.678Z,101511.92
2022-11-29T03:54:50.874Z,101513.63
2022-11-29T03:57:31.653Z,101513.27
2022-11-29T04:00:09.175Z,101515.27
2022-11-29T04:03:12.905Z,101510.59
2022-11-29T04:06:04.047Z,101509.91
2022-11-29T04:09:12.458Z,101508.73
2022-11-29T04:12:32.643Z,101503.32
2022-11-29T04:15:38.033Z,101504.30
2022-11-29T04:18:35.126Z,101507.33
2022-11-29T04:21:28.218Z,101507.56
2022-11-29T04:24:21.375Z,101510.14
2022-11-29T04:27:31.559Z,101508.83
2022-11-29T04:30:20.206Z,101511.15
2022-11-29T04:33:30.152Z,101516.40
2022-11-29T04:36:22.074Z,101519.73
2022-11-29T04:39:18.506Z,101522.79
2022-11-29T04:42:29.211Z,101520.58
2022-11-29T04:45:30.573Z,101523.51
2022-11-29T04:48:18.060Z,101524.67
2022-11-29T04:51:04.709Z,101522.35
2022-11-29T04:53:58.043Z,101523.56
2022-11-29T04:56:38.410Z,101521.23
2022-11-29T04:59:17.297Z,101519.20
2022-11-29T05:02:00.103Z,101521.29
2022-11-29T05:04:38.132Z,101521.26
2022-11-29T05:07:18.388Z,101519.83
2022-11-29T05:10:01.885Z,101521.55
2022-11-29T05:12:40.058Z,101525.80
2022-11-29T05:15:42.538Z,101526.16
2022-11-29T05:18:24.208Z,101526.30
2022-11-29T05:21:07.661Z,101524.26
2022-11-29T05:23:55.258Z,101522.24
2022-11-29T05:26:31.882Z,101522.09
2022-11-29T05:29:07.488Z,101525.57
2022-11-29T05:31:57.509Z,101521.63
2022-11-29T05:34:47.277Z,101525.20
2022-11-29T05:37:32.831Z,101522.67
2022-11-29T05:40:29.279Z,101523.95
2022-11-29T05:43:16.790Z,101524.02
2022-11-29T05:45:56.366Z,101523.39
2022-11-29T05:48:36.687Z,101526.86
2022-11-29T05:51:21.955Z,101524.45
2022-11-29T05:54:06.663Z,101522.69
2022-11-29T05:56:50.399Z,101527.30
2022-11-29T05:59:26.558Z,101531.07
2022-11-29T06:02:08.467Z,101529.69
2022-11-29T06:04:57.544Z,101536.04
2022-11-29T06:07:40.347Z,101530.08
2022-11-29T06:10:17.920Z,101532.29
2022-11-29T06:12:57.600Z,101535.45
2022-11-29T06:15:52.770Z,101542.75
2022-11-29T06:18:36.418Z,101542.64
2022-11-29T06:21:22.467Z,101550.42
2022-11-29T06:24:23.283Z,101553.46
2022-11-29T06:27:17.922Z,101554.90
2022-11-29T06:29:58.398Z,101551.02
2022-11-29T06:32:41.108Z,101560.05
2022-11-29T06:35:44.099Z,101561.42
2022-11-29T06:38:23.483Z,101565.64
2022-11-29T06:41:01.804Z,101560.48
2022-11-29T06:43:35.732Z,101559.66
2022-11-29T06:46:15.659Z,101560.03
2022-11-29T06:48:56.577Z,101561.12
2022-11-29T06:51:42.366Z,101562.94
2022-11-29T06:54:27.617Z,101558.90
2022-11-29T06:57:09.927Z,101560.41
2022-11-29T06:59:56.488Z,101561.30
2022-11-29T07:02:53.635Z,101561.65
2022-11-29T07:05:29.341Z,101557.38
2022-11-29T07:08:06.260Z,101561.44
2022-11-29T07:10:42.120Z,101561.84
2022-11-29T07:13:14.898Z,101561.21
2022-11-29T07:16:01.574Z,101563.86
2022-11-29T07:18:41.287Z,101566.20
2022-11-29T07:21:22.185Z,101571.39
2022-11-29T07:24:08.139Z,101572.86
2022-11-29T07:26:48.122Z,101569.30
2022-11-29T07:29:33.996Z,101570.23
2022-11-29T07:32:18.423Z,101572.33
2022-11-29T07:35:02.466Z,101571.42
2022-11-29T07:37:42.606Z,101572.57
2022-11-29T07:40:20.871Z,101568.55
2022-11-29T07:43:10.247Z,101565.44
2022-11-29T07:45:43.110Z,101569.17
2022-11-29T07:48:17.704Z,101564.48
2022-11-29T07:50:50.158Z,101566.56
2022-11-29T07:53:24.467Z,101566.09
2022-11-29T07:55:56.869Z,101557.33
2022-11-29T07:58:29.450Z,101556.58
2022-11-29T08:01:01.811Z,101555.09
2022-11-29T08:03:35.587Z,101555.89
2022-11-29T08:06:08.219Z,101559.85
2022-11-29T08:08:43.973Z,101560.52
2022-11-29T08:11:16.819Z,101558.72
2022-11-29T08:13:49.098Z,101557.52
2022-11-29T08:16:21.424Z,101556.84
2022-11-29T08:18:53.932Z,101551.59
2022-11-29T08:21:26.291Z,101553.35
2022-11-29T08:23:58.650Z,101559.07
2022-11-29T08:26:31.901Z,101555.91
2022-11-29T08:29:04.454Z,101562.73
2022-11-29T08:31:36.972Z,101562.83
2022-11-29T08:34:10.871Z,101564.82
2022-11-29T08:36:43.314Z,101559.98
2022-11-29T08:39:15.633Z,101553.77
2022-11-29T08:41:48.034Z,101550.19
2022-11-29T08:44:20.313Z,101549.59
2022-11-29T08:47:10.015Z,101551.11
2022-11-29T08:50:01.352Z,101543.72
2022-11-29T08:52:53.808Z,101542.48
2022-11-29T08:55:28.028Z,101541.30
2022-11-29T08:58:04.914Z,101541.05
2022-11-29T09:00:37.852Z,101534.86
2022-11-29T09:03:28.202Z,101526.39
2022-11-29T09:06:00.555Z,101527.05
2022-11-29T09:08:32.908Z,101522.05
2022-11-29T09:11:13.286Z,101521.35
2022-11-29T09:13:47.460Z,101516.23
2022-11-29T09:16:23.180Z,101515.45
2022-11-29T09:18:57.572Z,101515.48
2022-11-29T09:21:32.167Z,101514.32
2022-11-29T09:24:06.690Z,101516.80
2022-11-29T09:26:42.021Z,101520.55
2022-11-29T09:29:14.553Z,101518.60
2022-11-29T09:31:47.316Z,101517.86
2022-11-29T09:34:20.263Z,101511.82
2022-11-29T09:36:52.537Z,101502.75
2022-11-29T09:39:24.890Z,101503.67
2022-11-29T09:42:09.915Z,101500.32
2022-11-29T09:44:52.455Z,101496.45
2022-11-29T09:47:39.231Z,101493.79
2022-11-29T09:50:29.828Z,101485.38
2022-11-29T09:53:17.626Z,101480.80
2022-11-29T09:56:06.360Z,101481.36
2022-11-29T09:58:47.713Z,101475.66
2022-11-29T10:01:26.250Z,101473.67
2022-11-29T10:04:02.428Z,101468.81
2022-11-29T10:06:41.628Z,101465.42
2022-11-29T10:09:21.895Z,101461.52
2022-11-29T10:12:06.558Z,101460.84
2022-11-29T10:14:45.618Z,101461.20
2022-11-29T10:17:33.115Z,101465.65
2022-11-29T10:20:12.547Z,101466.20
2022-11-29T10:22:53.626Z,101468.27
2022-11-29T10:25:32.238Z,101466.14
2022-11-29T10:28:05.427Z,101465.27
2022-11-29T10:30:38.755Z,101467.64
2022-11-29T10:33:18.653Z,101471.08
2022-11-29T10:35:52.580Z,101473.06
2022-11-29T10:38:32.528Z,101468.94
2022-11-29T10:41:08.876Z,101471.48
2022-11-29T10:43:43.239Z,101480.45
2022-11-29T10:46:27.623Z,101477.23
2022-11-29T10:49:03.331Z,101476.33
2022-11-29T10:51:36.375Z,101476.84
2022-11-29T10:54:23.421Z,101471.73
2022-11-29T10:56:57.465Z,101470.58
2022-11-29T10:59:33.115Z,101464.99
2022-11-29T11:02:06.808Z,101462.15
2022-11-29T11:04:46.582Z,101458.29
2022-11-29T11:07:28.415Z,101460.36
2022-11-29T11:10:01.292Z,101461.76
2022-11-29T11:12:35.331Z,101455.66
2022-11-29T11:15:28.891Z,101457.05
2022-11-29T11:18:05.035Z,101460.48
2022-11-29T11:20:41.132Z,101462.78
2022-11-29T11:23:25.584Z,101462.81
2022-11-29T11:26:03.231Z,101461.99
2022-11-29T11:28:43.604Z,101456.45
2022-11-29T11:31:16.827Z,101456.89
2022-11-29T11:33:49.230Z,101451.02
2022-11-29T11:36:27.304Z,101448.11
2022-11-29T11:39:11.045Z,101446.80
2022-11-29T11:42:02.570Z,101446.17
2022-11-29T11:44:48.478Z,101446.06
2022-11-29T11:47:24.489Z,101441.63
2022-11-29T11:50:08.053Z,101443.98
2022-11-29T11:52:50.436Z,101442.58
2022-11-29T11:55:38.617Z,101441.84
2022-11-29T11:58:23.366Z,101445.96
2022-11-29T12:01:05.259Z,101449.41
2022-11-29T12:03:46.418Z,101448.23
2022-11-29T12:06:40.270Z,101448.64
2022-11-29T12:09:23.004Z,101440.88
2022-11-29T12:12:03.631Z,101443.36
2022-11-29T12:14:42.260Z,101441.04
2022-11-29T12:17:21.839Z,101436.83
2022-11-29T12:20:09.364Z,101434.81
2022-11-29T12:22:49.626Z,101431.17
2022-11-29T12:25:25.891Z,101431.45
2022-11-29T12:27:58.272Z,101432.36
2022-11-29T12:30:31.535Z,101435.56
2022-11-29T12:33:23.170Z,101434.36
2022-11-29T12:36:27.435Z,101431.58
2022-11-29T12:39:13.804Z,101426.52
2022-11-29T12:41:54.274Z,101424.31
2022-11-29T12:44:39.510Z,101429.88
2022-11-29T12:47:39.432Z,101421.27
2022-11-29T12:50:24.079Z,101416.27
2022-11-29T12:53:06.321Z,101417.52
2022-11-29T12:55:50.294Z,101419.36
2022-11-29T12:58:33.436Z,101425.77
2022-11-29T13:01:15.776Z,101421.77
2022-11-29T13:03:59.021Z,101418.46
2022-11-29T13:06:41.235Z,101414.32
2022-11-29T13:09:42.024Z,101419.61
2022-11-29T13:12:21.105Z,101429.25
2022-11-29T13:15:02.018Z,101425.67
2022-11-29T13:17:45.094Z,101426.27
2022-11-29T13:20:27.704Z,101433.34
2022-11-29T13:23:10.646Z,101428.50
2022-11-29T13:25:46.686Z,101430.39
2022-11-29T13:28:25.652Z,101431.17
2022-11-29T13:31:01.948Z,101424.41
2022-11-29T13:33:43.563Z,101430.59
2022-11-29T13:36:22.643Z,101426.48
2022-11-29T13:39:06.869Z,101430.26
2022-11-29T13:41:47.671Z,101430.41
2022-11-29T13:44:28.994Z,101436.31
2022-11-29T13:47:08.260Z,101439.29
2022-11-29T13:50:02.736Z,101444.58
2022-11-29T13:52:41.467Z,101446.96
2022-11-29T13:55:31.336Z,101448.48
2022-11-29T13:58:16.799Z,101449.08
2022-11-29T14:00:52.398Z,101452.18
2022-11-29T14:03:38.542Z,101449.73
2022-11-29T14:06:18.949Z,101451.01
2022-11-29T14:09:25.291Z,101458.31
2022-11-29T14:12:20.086Z,101462.55
2022-11-29T14:14:56.727Z,101461.48
2022-11-29T14:17:50.675Z,101467.79
2022-11-29T14:20:59.062Z,101461.52
2022-11-29T14:23:38.236Z,101462.14
2022-11-29T14:26:31.570Z,101462.11
2022-11-29T14:29:06.652Z,101465.61
2022-11-29T14:31:56.663Z,101463.89
2022-11-29T14:34:39.784Z,101462.82
2022-11-29T14:37:27.000Z,101468.13
2022-11-29T14:40:02.843Z,101470.36
2022-11-29T14:42:33.453Z,101472.36
2022-11-29T14:45:22.492Z,101474.86
2022-11-29T14:47:55.099Z,101472.23
2022-11-29T14:50:37.315Z,101475.72
2022-11-29T14:53:29.352Z,101475.36
2022-11-29T14:56:32.258Z,101477.48
2022-11-29T14:59:37.442Z,101478.09
2022-11-29T15:02:27.486Z,101476.71
2022-11-29T15:05:08.255Z,101475.38
2022-11-29T15:07:46.213Z,101478.16
2022-11-29T15:10:24.307Z,101480.48
2022-11-29T15:12:57.994Z,101481.23
2022-11-29T15:15:55.681Z,101489.80
2022-11-29T15:18:50.630Z,101487.92
2022-11-29T15:21:33.835Z,101491.92
2022-11-29T15:24:14.533Z,101490.90
2022-11-29T15:26:59.534Z,101492.30
2022-11-29T15:29:33.033Z,101496.55
2022-11-29T15:32:08.476Z,101492.55
2022-11-29T15:34:45.243Z,101497.21
2022-11-29T15:37:25.760Z,101500.22
2022-11-29T15:40:12.670Z,101505.66
2022-11-29T15:42:50.186Z,101505.20
2022-11-29T15:45:32.677Z,101502.46
2022-11-29T15:48:18.284Z,101505.09
2022-11-29T15:50:59.722Z,101507.31
2022-11-29T15:53:35.712Z,101510.08
2022-11-29T15:56:14.230Z,101514.41
2022-11-29T15:58:49.176Z,101511.73
2022-11-29T16:01:23.792Z,101512.27
2022-11-29T16:03:58.395Z,101513.22
2022-11-29T16:06:35.691Z,101513.61
2022-11-29T16:09:11.166Z,101520.41
2022-11-29T16:11:44.240Z,101525.88
2022-11-29T16:14:25.214Z,101524.99
2022-11-29T16:17:00.656Z,101526.36
2022-11-29T16:19:39.376Z,101532.06
2022-11-29T16:22:19.309Z,101535.71
2022-11-29T16:25:04.075Z,101530.34
2022-11-29T16:27:37.782Z,101529.12
2022-11-29T16:30:25.417Z,101525.61
2022-11-29T16:33:00.216Z,101527.70
2022-11-29T16:35:35.028Z,101527.84
2022-11-29T16:38:17.684Z,101529.39
2022-11-29T16:41:05.854Z,101537.94
2022-11-29T16:43:54.287Z,101544.52
2022-11-29T16:46:41.017Z,101544.85
2022-11-29T16:49:35.211Z,101546.84
2022-11-29T16:52:26.455Z,101556.84
2022-11-29T16:54:59.485Z,101555.31
2022-11-29T16:57:32.707Z,101550.61
2022-11-29T17:00:10.742Z,101554.84
2022-11-29T17:02:43.079Z,101557.14
2022-11-29T17:05:15.615Z,101554.36
2022-11-29T17:07:48.109Z,101558.29
2022-11-29T17:10:23.937Z,101561.85
2022-11-29T17:12:56.221Z,101565.81
2022-11-29T17:15:28.526Z,101568.20
2022-11-29T17:18:00.722Z,101572.08
2022-11-29T17:20:32.989Z,101574.39
2022-11-29T17:23:05.219Z,101579.73
2022-11-29T17:25:37.549Z,101577.39
2022-11-29T17:28:10.172Z,101582.55
2022-11-29T17:30:42.382Z,101582.34
2022-11-29T17:33:14.693Z,101581.58
2022-11-29T17:35:47.044Z,101585.37
2022-11-29T17:38:19.396Z,101585.64
2022-11-29T17:40:51.729Z,101586.04
2022-11-29T17:43:23.963Z,101582.08
2022-11-29T17:45:56.310Z,101571.55
2022-11-29T17:48:33.505Z,101575.39
2022-11-29T17:51:17.250Z,101580.12
2022-11-29T17:54:01.081Z,101585.33
2022-11-29T17:56:34.498Z,101582.63
2022-11-29T17:59:07.511Z,101581.10
2022-11-29T18:01:39.880Z,101585.89
2022-11-29T18:04:12.392Z,101583.81
2022-11-29T18:06:49.853Z,101581.61
2022-11-29T18:09:22.722Z,101575.23
2022-11-29T18:11:55.138Z,101581.13
2022-11-29T18:14:28.519Z,101579.16
2022-11-29T18:17:01.038Z,101581.55
2022-11-29T18:19:33.463Z,101581.99
2022-11-29T18:22:05.737Z,101589.38
2022-11-29T18:24:38.034Z,101585.97
2022-11-29T18:27:10.418Z,101585.72
2022-11-29T18:29:42.663Z,101581.41
2022-11-29T18:32:15.063Z,101580.61
2022-11-29T18:34:47.636Z,101583.91
2022-11-29T18:37:40.043Z,101588.16
2022-11-29T18:40:14.923Z,101587.98
2022-11-29T18:42:47.371Z,101584.57
2022-11-29T18:45:19.732Z,101589.50
2022-11-29T18:47:52.068Z,101589.61
2022-11-29T18:50:24.343Z,101585.80
2022-11-29T18:52:57.332Z,101591.79
2022-11-29T18:55:30.297Z,101594.77
2022-11-29T18:58:02.630Z,101602.42
2022-11-29T19:00:34.901Z,101608.42
2022-11-29T19:03:07.202Z,101602.84
2022-11-29T19:05:39.472Z,101601.48
2022-11-29T19:08:11.697Z,101604.84
2022-11-29T19:10:44.872Z,101606.77
2022-11-29T19:13:17.192Z,101605.76
2022-11-29T19:15:56.127Z,101602.42
2022-11-29T19:18:29.259Z,101606.05
2022-11-29T19:21:09.363Z,101608.34
2022-11-29T19:23:42.929Z,101611.59
2022-11-29T19:26:16.608Z,101608.36
2022-11-29T19:28:49.562Z,101612.86
2022-11-29T19:31:24.791Z,101614.70
2022-11-29T19:33:58.400Z,101616.34
2022-11-29T19:36:32.531Z,101614.64
2022-11-29T19:39:05.978Z,101616.74
2022-11-29T19:41:38.992Z,101621.39
2022-11-29T19:44:12.443Z,101620.75
2022-11-29T19:46:48.301Z,101623.55
2022-11-29T19:49:19.089Z,101620.64
2022-11-29T19:51:51.415Z,101620.98
2022-11-29T19:54:23.632Z,101620.10
2022-11-29T19:56:56.126Z,101622.23
2022-11-29T19:59:28.414Z,101622.68
2022-11-29T20:02:00.797Z,101621.36
2022-11-29T20:04:33.143Z,101616.27
2022-11-29T20:07:06.337Z,101615.37
2022-11-29T20:09:38.645Z,101616.85
2022-11-29T20:12:10.932Z,101613.19
2022-11-29T20:14:43.193Z,101615.40
2022-11-29T20:17:15.454Z,101614.62
2022-11-29T20:19:48.004Z,101614.74
2022-11-29T20:22:20.544Z,101614.67
2022-11-29T20:24:54.483Z,101616.65
2022-11-29T20:27:26.808Z,101615.71
2022-11-29T20:29:59.176Z,101621.85
2022-11-29T20:32:31.825Z,101621.39
2022-11-29T20:35:05.346Z,101616.18
2022-11-29T20:38:01.405Z,101617.36
2022-11-29T20:40:45.342Z,101621.96
2022-11-29T20:43:22.746Z,101620.42
2022-11-29T20:45:55.583Z,101622.77
2022-11-29T20:48:29.339Z,101626.44
2022-11-29T20:51:03.883Z,101630.03
2022-11-29T20:53:39.323Z,101628.08
2022-11-29T20:56:13.043Z,101624.09
2022-11-29T20:58:45.380Z,101625.40
2022-11-29T21:01:17.750Z,101625.94
2022-11-29T21:03:50.083Z,101632.68
2022-11-29T21:06:22.424Z,101633.79
2022-11-29T21:08:54.832Z,101639.42
2022-11-29T21:11:27.822Z,101641.83
2022-11-29T21:14:03.936Z,101643.48
2022-11-29T21:16:36.861Z,101648.84
2022-11-29T21:19:13.937Z,101648.30
2022-11-29T21:21:58.332Z,101651.31
2022-11-29T21:24:37.987Z,101648.20
2022-11-29T21:27:16.171Z,101645.37
2022-11-29T21:29:49.493Z,101646.23
2022-11-29T21:32:24.666Z,101644.05
2022-11-29T21:34:57.035Z,101644.58
2022-11-29T21:37:31.225Z,101643.33
2022-11-29T21:40:03.625Z,101642.29
2022-11-29T21:42:36.373Z,101640.55
2022-11-29T21:45:15.165Z,101639.38
2022-11-29T21:47:48.701Z,101640.17
2022-11-29T21:50:21.070Z,101641.05
2022-11-29T21:52:55.364Z,101638.74
2022-11-29T21:55:32.145Z,101638.14
2022-11-29T21:58:04.848Z,101635.42
2022-11-29T22:00:37.668Z,101634.42
2022-11-29T22:03:11.340Z,101637.23
2022-11-29T22:05:43.576Z,101638.70
2022-11-29T22:08:15.906Z,101632.94
2022-11-29T22:10:48.137Z,101627.09
2022-11-29T22:13:20.362Z,101623.73
2022-11-29T22:15:52.614Z,101629.59
2022-11-29T22:18:27.925Z,101631.16
2022-11-29T22:21:05.299Z,101623.78
2022-11-29T22:23:37.667Z,101621.80
2022-11-29T22:26:10.220Z,101619.89
2022-11-29T22:28:42.502Z,101622.15
2022-11-29T22:31:15.386Z,101619.85
2022-11-29T22:33:47.757Z,101614.67
2022-11-29T22:36:19.970Z,101614.73
2022-11-29T22:38:52.603Z,101616.81
2022-11-29T22:41:24.978Z,101616.86
2022-11-29T22:43:57.359Z,101620.83
2022-11-29T22:46:30.991Z,101619.11
2022-11-29T22:49:03.726Z,101620.02
2022-11-29T22:51:37.743Z,101615.67
2022-11-29T22:54:11.834Z,101619.45
2022-11-29T22:56:45.864Z,101616.47
2022-11-29T22:59:18.236Z,101613.06
2022-11-29T23:01:50.670Z,101616.33
2022-11-29T23:04:23.031Z,101621.59
2022-11-29T23:06:55.299Z,101624.95
2022-11-29T23:09:27.565Z,101620.11
2022-11-29T23:11:59.878Z,101619.60
2022-11-29T23:14:32.347Z,101620.98
2022-11-29T23:17:04.655Z,101619.53
2022-11-29T23:19:36.905Z,101618.13
2022-11-29T23:22:09.161Z,101621.23
2022-11-29T23:24:42.600Z,101619.25
2022-11-29T23:27:14.840Z,101616.23
2022-11-29T23:29:47.120Z,101612.19
2022-11-29T23:32:19.350Z,101616.52
2022-11-29T23:34:51.624Z,101609.47
2022-11-29T23:37:23.875Z,101610.27
2022-11-29T23:39:56.106Z,101613.11
2022-11-29T23:42:28.457Z,101612.70
2022-11-29T23:45:00.686Z,101613.17
2022-11-29T23:47:33.198Z,101614.90
2022-11-29T23:50:05.688Z,101616.79
2022-11-29T23:52:38.257Z,101620.13
2022-11-29T23:55:12.886Z,101615.95
2022-11-29T23:57:45.181Z,101613.31
